sensor_id;sensor_type;location;lat;lon;timestamp;pressure;altitude;pressure_sealevel;temperature;humidity
6680;BME280;3376;42.664;23.346;2023-08-20T21:35:45;94884.34;;;25.47;55.17
6680;BME280;3376;42.664;23.346;2023-08-20T21:38:12;94888.34;;;25.45;56.83
6680;BME280;3376;42.664;23.346;2023-08-20T21:40:38;94896.03;;;25.41;56.17
6680;BME280;3376;42.664;23.346;2023-08-20T21:43:05;94896.53;;;25.38;58.24
6680;BME280;3376;42.664;23.346;2023-08-20T21:45:33;94889.31;;;25.34;57.56
6680;BME280;3376;42.664;23.346;2023-08-20T21:48:00;94896.19;;;25.30;60.28
6680;BME280;3376;42.664;23.346;2023-08-20T21:50:27;94891.88;;;25.19;61.62
6680;BME280;3376;42.664;23.346;2023-08-20T21:52:55;94900.91;;;25.18;62.00
6680;BME280;3376;42.664;23.346;2023-08-20T21:55:22;94906.16;;;25.13;62.50
6680;BME280;3376;42.664;23.346;2023-08-20T21:57:48;94897.44;;;25.17;62.23
6680;BME280;3376;42.664;23.346;2023-08-20T22:00:15;94888.91;;;25.10;62.63
6680;BME280;3376;42.664;23.346;2023-08-20T22:02:43;94908.63;;;25.24;62.32
6680;BME280;3376;42.664;23.346;2023-08-20T22:05:10;94898.72;;;25.15;63.52
6680;BME280;3376;42.664;23.346;2023-08-20T22:07:38;94906.63;;;25.05;63.86
6680;BME280;3376;42.664;23.346;2023-08-20T22:10:07;94914.63;;;25.10;64.74
6680;BME280;3376;42.664;23.346;2023-08-20T22:12:34;94909.06;;;25.11;64.24
6680;BME280;3376;42.664;23.346;2023-08-20T22:15:01;94900.41;;;25.26;63.94
6680;BME280;3376;42.664;23.346;2023-08-20T22:17:28;94897.56;;;25.37;61.22
6680;BME280;3376;42.664;23.346;2023-08-20T22:19:54;94907.16;;;25.38;60.32
6680;BME280;3376;42.664;23.346;2023-08-20T22:22:21;94894.09;;;24.90;61.21
6680;BME280;3376;42.664;23.346;2023-08-20T22:24:48;94903.91;;;24.95;62.79
6680;BME280;3376;42.664;23.346;2023-08-20T22:27:16;94885.25;;;24.80;64.22
6680;BME280;3376;42.664;23.346;2023-08-20T22:29:43;94890.63;;;24.90;65.21
6680;BME280;3376;42.664;23.346;2023-08-20T22:32:10;94910.50;;;24.92;65.09
6680;BME280;3376;42.664;23.346;2023-08-20T22:34:36;94904.66;;;24.85;65.79
6680;BME280;3376;42.664;23.346;2023-08-20T22:37:03;94898.22;;;24.76;66.41
6680;BME280;3376;42.664;23.346;2023-08-20T22:39:30;94862.81;;;24.61;66.48
6680;BME280;3376;42.664;23.346;2023-08-20T22:41:57;94897.44;;;24.81;67.17
6680;BME280;3376;42.664;23.346;2023-08-20T22:44:25;94897.47;;;24.86;66.54
6680;BME280;3376;42.664;23.346;2023-08-20T22:46:53;94891.03;;;24.72;66.75
6680;BME280;3376;42.664;23.346;2023-08-20T22:49:20;94901.38;;;24.73;67.25
6680;BME280;3376;42.664;23.346;2023-08-20T22:51:47;94901.09;;;24.70;67.10
6680;BME280;3376;42.664;23.346;2023-08-20T22:54:14;94897.38;;;24.71;67.07
6680;BME280;3376;42.664;23.346;2023-08-20T22:56:40;94868.78;;;24.46;67.12
6680;BME280;3376;42.664;23.346;2023-08-20T22:59:07;94904.91;;;24.57;66.79
6680;BME280;3376;42.664;23.346;2023-08-20T23:01:37;94898.22;;;24.50;66.36
6680;BME280;3376;42.664;23.346;2023-08-20T23:04:04;94873.59;;;24.22;66.42
6680;BME280;3376;42.664;23.346;2023-08-20T23:06:31;94898.19;;;24.44;66.78
6680;BME280;3376;42.664;23.346;2023-08-20T23:08:58;94877.56;;;24.20;68.18
6680;BME280;3376;42.664;23.346;2023-08-20T23:11:25;94898.50;;;24.21;69.11
6680;BME280;3376;42.664;23.346;2023-08-20T23:13:51;94908.09;;;24.27;70.21
6680;BME280;3376;42.664;23.346;2023-08-20T23:16:18;94906.69;;;24.20;70.92
6680;BME280;3376;42.664;23.346;2023-08-20T23:18:46;94909.03;;;24.16;69.62
6680;BME280;3376;42.664;23.346;2023-08-20T23:21:13;94903.59;;;24.01;70.36
6680;BME280;3376;42.664;23.346;2023-08-20T23:23:40;94901.19;;;24.00;70.87
6680;BME280;3376;42.664;23.346;2023-08-20T23:26:07;94910.94;;;24.21;69.45
6680;BME280;3376;42.664;23.346;2023-08-20T23:28:34;94908.50;;;24.14;69.97
6680;BME280;3376;42.664;23.346;2023-08-20T23:31:04;94905.34;;;24.17;69.87
6680;BME280;3376;42.664;23.346;2023-08-20T23:33:30;94907.28;;;24.00;71.03
6680;BME280;3376;42.664;23.346;2023-08-20T23:36:00;94907.94;;;23.91;72.09
6680;BME280;3376;42.664;23.346;2023-08-20T23:38:27;94892.38;;;23.73;73.12
6680;BME280;3376;42.664;23.346;2023-08-20T23:40:55;94902.81;;;23.84;71.97
6680;BME280;3376;42.664;23.346;2023-08-20T23:43:22;94900.19;;;23.84;71.88
6680;BME280;3376;42.664;23.346;2023-08-20T23:45:48;94900.25;;;23.89;72.80
6680;BME280;3376;42.664;23.346;2023-08-20T23:48:15;94902.09;;;23.89;72.40
6680;BME280;3376;42.664;23.346;2023-08-20T23:50:42;94792.00;;;23.18;72.66
6680;BME280;3376;42.664;23.346;2023-08-20T23:53:10;94900.69;;;23.81;72.98
6680;BME280;3376;42.664;23.346;2023-08-20T23:55:37;94900.72;;;23.86;73.42
6680;BME280;3376;42.664;23.346;2023-08-20T23:58:04;94902.34;;;23.87;72.71
